Time;durP1;ratioP1;P1;durP2;ratioP2;P2;SDS_P1;SDS_P2;PMS_P1;PMS_P2;Temp;Humidity;BMP_temperature;BMP_pressure;BME280_temperature;BME280_humidity;BME280_pressure;Samples;Min_cycle;Max_cycle;Signal;HPM_P1;HPM_P2
2023/07/31 00:01:59;;;;;;;862.05;778.08;;;;;;;;;;5012750;28;20510;-71
2023/07/31 00:04:26;;;;;;;861.30;776.63;;;;;;;;;;5011670;28;20097;-70
2023/07/31 00:06:53;;;;;;;865.90;779.38;;;;;;;;;;5011127;28;20446;-67
2023/07/31 00:09:19;;;;;;;864.28;779.15;;;;;;;;;;5011380;28;20041;-70
2023/07/31 00:11:46;;;;;;;852.28;766.83;;;;;;;;;;5011398;28;20045;-70
2023/07/31 00:14:12;;;;;;;858.70;770.20;;;;;;;;;;5011886;28;20475;-71
2023/07/31 00:16:39;;;;;;;855.97;771.63;;;;;;;;;;5011302;28;20044;-69
2023/07/31 00:19:06;;;;;;;849.75;766.03;;;;;;;;;;5011565;28;20549;-70
2023/07/31 00:21:33;;;;;;;844.88;760.15;;;;;;;;;;5011426;28;20088;-70
2023/07/31 00:23:59;;;;;;;852.58;768.47;;;;;;;;;;5011589;28;20088;-71
2023/07/31 00:26:26;;;;;;;865.38;775.80;;;;;;;;;;5011279;28;20041;-70
2023/07/31 00:28:53;;;;;;;842.83;759.80;;;;;;;;;;5012697;28;20438;-69
2023/07/31 00:31:19;;;;;;;835.92;752.35;;;;;;;;;;5011246;28;20088;-66
2023/07/31 00:33:47;;;;;;;852.67;766.88;;;;;;;;;;5010647;28;20048;-69
2023/07/31 00:36:14;;;;;;;856.13;770.35;;;;;;;;;;5002812;28;20054;-71
2023/07/31 00:38:41;;;;;;;848.33;762.20;;;;;;;;;;4993679;28;20080;-67
2023/07/31 00:41:08;;;;;;;855.58;770.85;;;;;;;;;;5011145;28;20037;-71
2023/07/31 00:43:35;;;;;;;847.90;763.28;;;;;;;;;;5011589;28;20076;-71
2023/07/31 00:46:01;;;;;;;842.17;757.40;;;;;;;;;;5011656;28;20042;-68
2023/07/31 00:48:28;;;;;;;846.42;761.60;;;;;;;;;;5010650;28;20033;-67
2023/07/31 00:50:55;;;;;;;852.92;767.33;;;;;;;;;;4993681;28;20047;-72
2023/07/31 00:53:21;;;;;;;842.92;756.67;;;;;;;;;;5009427;28;20353;-67
2023/07/31 00:55:49;;;;;;;849.70;764.95;;;;;;;;;;4998941;28;20074;-69
2023/07/31 00:58:15;;;;;;;834.60;750.30;;;;;;;;;;5010219;28;20125;-70
2023/07/31 01:00:42;;;;;;;851.08;766.95;;;;;;;;;;4993053;28;20034;-72
2023/07/31 01:03:09;;;;;;;832.38;749.55;;;;;;;;;;4993093;28;20145;-70
2023/07/31 01:05:54;;;;;;;826.60;742.15;;;;;;;;;;5010894;28;20046;-72
2023/07/31 01:08:29;;;;;;;833.83;746.72;;;;;;;;;;4993335;28;20041;-72
2023/07/31 01:11:00;;;;;;;834.33;751.85;;;;;;;;;;5004874;28;20082;-71
2023/07/31 01:13:27;;;;;;;841.00;756.78;;;;;;;;;;4993097;28;20133;-71
2023/07/31 01:15:54;;;;;;;832.25;748.97;;;;;;;;;;5010772;28;20088;-71
2023/07/31 01:18:20;;;;;;;831.08;745.83;;;;;;;;;;5010871;28;20472;-71
2023/07/31 01:20:50;;;;;;;836.97;751.65;;;;;;;;;;5010757;28;20060;-71
2023/07/31 01:23:26;;;;;;;833.97;746.72;;;;;;;;;;5008179;28;20048;-71
2023/07/31 01:26:12;;;;;;;832.90;748.58;;;;;;;;;;5006387;28;20083;-68
2023/07/31 01:28:49;;;;;;;826.40;741.58;;;;;;;;;;5010969;28;20088;-71
2023/07/31 01:31:19;;;;;;;813.53;732.35;;;;;;;;;;5008286;28;20502;-72
2023/07/31 01:33:46;;;;;;;832.08;746.58;;;;;;;;;;4993136;28;20050;-71
2023/07/31 01:36:13;;;;;;;824.72;740.70;;;;;;;;;;5010362;28;20077;-70
2023/07/31 01:38:40;;;;;;;837.53;752.78;;;;;;;;;;5006991;28;20038;-71
2023/07/31 01:41:07;;;;;;;828.80;744.90;;;;;;;;;;5011463;28;20399;-68
2023/07/31 01:43:34;;;;;;;823.25;739.30;;;;;;;;;;5010636;28;20041;-72
2023/07/31 01:46:01;;;;;;;820.67;738.00;;;;;;;;;;5001264;28;20088;-66
2023/07/31 01:48:27;;;;;;;819.00;735.97;;;;;;;;;;5009789;28;20045;-70
2023/07/31 01:50:54;;;;;;;819.47;733.75;;;;;;;;;;4992673;28;20418;-74
2023/07/31 01:53:21;;;;;;;836.05;748.90;;;;;;;;;;5012869;28;20066;-69
2023/07/31 01:55:47;;;;;;;828.58;744.35;;;;;;;;;;5014983;28;20030;-70
2023/07/31 01:58:14;;;;;;;823.25;740.33;;;;;;;;;;4993976;28;20065;-71
2023/07/31 02:03:44;;;;;;;816.35;734.80;;;;;;;;;;4945491;29;20070;-69
2023/07/31 02:06:11;;;;;;;815.05;735.28;;;;;;;;;;4947523;29;20131;-69
2023/07/31 02:08:38;;;;;;;828.53;745.92;;;;;;;;;;4944180;29;20043;-69
2023/07/31 02:11:05;;;;;;;819.85;739.63;;;;;;;;;;4947276;29;20055;-69
2023/07/31 02:13:31;;;;;;;824.75;743.90;;;;;;;;;;4947697;29;20507;-69
2023/07/31 02:15:58;;;;;;;815.80;735.90;;;;;;;;;;4944385;28;20095;-69
2023/07/31 02:18:25;;;;;;;824.38;744.30;;;;;;;;;;4946246;29;20065;-69
2023/07/31 02:20:52;;;;;;;831.05;748.30;;;;;;;;;;4945073;29;20625;-69
2023/07/31 02:23:19;;;;;;;841.33;753.85;;;;;;;;;;4945850;28;20119;-68
2023/07/31 02:25:45;;;;;;;818.90;737.45;;;;;;;;;;4944198;29;20043;-68
2023/07/31 02:28:13;;;;;;;811.42;732.40;;;;;;;;;;4944636;29;20048;-68
2023/07/31 02:30:40;;;;;;;816.33;735.67;;;;;;;;;;4946501;29;20473;-69
2023/07/31 02:33:08;;;;;;;803.75;724.30;;;;;;;;;;4944894;29;20055;-69
2023/07/31 02:35:34;;;;;;;821.50;739.47;;;;;;;;;;4945516;29;20121;-69
2023/07/31 02:38:01;;;;;;;806.58;727.50;;;;;;;;;;4945318;29;20099;-67
2023/07/31 02:40:28;;;;;;;808.78;729.03;;;;;;;;;;4946570;29;20043;-67
2023/07/31 02:42:54;;;;;;;808.08;728.28;;;;;;;;;;4918603;29;20111;-68
2023/07/31 02:45:21;;;;;;;801.22;721.50;;;;;;;;;;4946414;29;20071;-67
2023/07/31 02:47:47;;;;;;;811.30;729.90;;;;;;;;;;4941065;29;20047;-67
2023/07/31 02:50:14;;;;;;;810.67;726.80;;;;;;;;;;4944659;29;20083;-68
2023/07/31 02:52:41;;;;;;;807.55;727.58;;;;;;;;;;4946434;29;20497;-68
2023/07/31 02:55:07;;;;;;;798.72;718.38;;;;;;;;;;4945803;29;20058;-67
2023/07/31 02:57:34;;;;;;;795.90;715.63;;;;;;;;;;4944216;29;20059;-68
2023/07/31 03:00:02;;;;;;;798.60;719.22;;;;;;;;;;4945941;29;20469;-68
2023/07/31 03:02:29;;;;;;;819.72;735.42;;;;;;;;;;4944679;29;20142;-68
2023/07/31 03:04:55;;;;;;;811.67;731.92;;;;;;;;;;4922677;29;20047;-68
2023/07/31 03:07:22;;;;;;;791.58;712.97;;;;;;;;;;4946334;29;20051;-68
2023/07/31 03:09:49;;;;;;;808.67;726.95;;;;;;;;;;4939226;28;20043;-68
2023/07/31 03:12:15;;;;;;;803.67;722.85;;;;;;;;;;4939154;28;20052;-68
2023/07/31 03:14:42;;;;;;;809.40;729.20;;;;;;;;;;4944964;29;20512;-68
2023/07/31 03:17:08;;;;;;;800.28;720.70;;;;;;;;;;4943732;29;20461;-68
2023/07/31 03:19:35;;;;;;;811.50;728.55;;;;;;;;;;4942357;29;20565;-68
2023/07/31 03:22:02;;;;;;;811.33;731.85;;;;;;;;;;4943186;29;20074;-69
2023/07/31 03:24:29;;;;;;;815.97;735.58;;;;;;;;;;4942026;29;20079;-69
2023/07/31 03:26:56;;;;;;;811.58;731.85;;;;;;;;;;4943713;29;20044;-69
2023/07/31 03:29:22;;;;;;;832.47;747.60;;;;;;;;;;4943374;29;20074;-69
2023/07/31 03:31:51;;;;;;;813.85;734.20;;;;;;;;;;4939282;29;20052;-69
2023/07/31 03:34:18;;;;;;;820.90;739.88;;;;;;;;;;4944563;29;20159;-69
2023/07/31 03:36:45;;;;;;;822.85;743.83;;;;;;;;;;4946223;29;20053;-69
2023/07/31 03:39:11;;;;;;;839.67;758.50;;;;;;;;;;4940716;29;20130;-69
2023/07/31 03:41:38;;;;;;;831.28;749.25;;;;;;;;;;4945298;29;20078;-69
2023/07/31 03:44:05;;;;;;;822.47;743.85;;;;;;;;;;4947377;29;20066;-69
2023/07/31 03:46:31;;;;;;;834.65;754.42;;;;;;;;;;4945849;28;20090;-69
2023/07/31 03:48:58;;;;;;;831.40;749.00;;;;;;;;;;4944459;29;20094;-68
2023/07/31 03:51:25;;;;;;;823.97;743.08;;;;;;;;;;4946528;29;20054;-70
2023/07/31 03:53:52;;;;;;;834.15;752.75;;;;;;;;;;4943108;29;20040;-69
2023/07/31 03:56:18;;;;;;;838.42;754.63;;;;;;;;;;4943996;29;20103;-68
2023/07/31 03:58:45;;;;;;;830.95;750.00;;;;;;;;;;4947163;29;20123;-69
2023/07/31 04:01:11;;;;;;;839.80;758.20;;;;;;;;;;4944754;29;20063;-70
2023/07/31 04:03:38;;;;;;;849.95;767.47;;;;;;;;;;4945285;29;20499;-67
2023/07/31 04:06:06;;;;;;;838.70;756.60;;;;;;;;;;4946017;29;20054;-68
2023/07/31 04:08:33;;;;;;;833.55;751.80;;;;;;;;;;4942002;29;20043;-68
2023/07/31 04:11:00;;;;;;;841.33;761.15;;;;;;;;;;4942456;29;20050;-69
2023/07/31 04:13:28;;;;;;;842.53;762.78;;;;;;;;;;4945993;29;20052;-69
2023/07/31 04:15:55;;;;;;;834.13;754.20;;;;;;;;;;4943244;28;20549;-70
2023/07/31 04:18:21;;;;;;;857.60;774.65;;;;;;;;;;4944577;29;20481;-69
2023/07/31 04:20:48;;;;;;;853.53;771.13;;;;;;;;;;4943348;29;20051;-70
2023/07/31 04:23:14;;;;;;;849.70;766.67;;;;;;;;;;4943141;29;20051;-71
2023/07/31 04:25:41;;;;;;;851.47;769.92;;;;;;;;;;4944686;29;20054;-71
2023/07/31 04:28:08;;;;;;;849.40;769.35;;;;;;;;;;4943144;29;20138;-69
2023/07/31 04:30:34;;;;;;;849.30;768.08;;;;;;;;;;4941178;29;20610;-69
2023/07/31 04:33:01;;;;;;;852.75;769.85;;;;;;;;;;4944761;29;20095;-69
2023/07/31 04:35:29;;;;;;;869.20;783.25;;;;;;;;;;4943672;29;20081;-69
2023/07/31 04:37:55;;;;;;;851.80;771.10;;;;;;;;;;4941180;29;20452;-69
2023/07/31 04:40:22;;;;;;;851.00;770.25;;;;;;;;;;4942594;28;20544;-69
2023/07/31 04:42:49;;;;;;;848.00;766.67;;;;;;;;;;4941247;29;20466;-69
2023/07/31 04:45:15;;;;;;;850.30;768.28;;;;;;;;;;4944682;29;20094;-70
2023/07/31 04:47:42;;;;;;;848.10;766.35;;;;;;;;;;4941713;29;20046;-69
2023/07/31 04:50:09;;;;;;;847.25;766.80;;;;;;;;;;4943117;29;20063;-69
2023/07/31 04:52:36;;;;;;;849.25;766.60;;;;;;;;;;4943429;29;20046;-69
2023/07/31 04:55:02;;;;;;;851.35;770.80;;;;;;;;;;4942653;29;20051;-69
2023/07/31 04:57:29;;;;;;;851.08;769.50;;;;;;;;;;4943427;29;20044;-69
2023/07/31 04:59:56;;;;;;;844.30;763.03;;;;;;;;;;4944189;29;20043;-69
2023/07/31 05:02:22;;;;;;;886.95;797.58;;;;;;;;;;4941880;29;20086;-69
2023/07/31 05:04:49;;;;;;;857.67;776.20;;;;;;;;;;4941798;29;20044;-69
2023/07/31 05:07:17;;;;;;;842.60;762.45;;;;;;;;;;4938647;29;20090;-69
2023/07/31 05:09:43;;;;;;;858.60;777.13;;;;;;;;;;4940247;29;20497;-69
2023/07/31 05:12:10;;;;;;;860.10;778.40;;;;;;;;;;4926580;29;20051;-69
2023/07/31 05:14:36;;;;;;;868.53;784.50;;;;;;;;;;4941902;29;20123;-69
2023/07/31 05:17:03;;;;;;;864.60;782.45;;;;;;;;;;4942229;29;20051;-68
2023/07/31 05:19:30;;;;;;;865.10;784.55;;;;;;;;;;4942344;29;20047;-69
2023/07/31 05:21:56;;;;;;;874.10;791.45;;;;;;;;;;4925082;29;20071;-69
2023/07/31 05:24:23;;;;;;;879.58;794.50;;;;;;;;;;4943288;29;20048;-69
2023/07/31 05:26:50;;;;;;;870.35;787.97;;;;;;;;;;4939672;29;20046;-68
2023/07/31 05:29:16;;;;;;;886.60;802.50;;;;;;;;;;4945337;29;20051;-69
2023/07/31 05:31:43;;;;;;;892.03;808.47;;;;;;;;;;4949160;28;20043;-69
2023/07/31 05:34:10;;;;;;;887.50;804.42;;;;;;;;;;4941243;29;20048;-69
2023/07/31 05:36:36;;;;;;;895.33;811.35;;;;;;;;;;4951197;29;20048;-69
2023/07/31 05:39:07;;;;;;;881.92;799.65;;;;;;;;;;4947814;29;20561;-69
2023/07/31 05:41:34;;;;;;;891.30;807.20;;;;;;;;;;4947646;29;20047;-70
2023/07/31 05:44:01;;;;;;;879.80;797.53;;;;;;;;;;4948190;29;20131;-69
2023/07/31 05:46:27;;;;;;;887.75;805.13;;;;;;;;;;4949321;29;20044;-69
2023/07/31 05:48:54;;;;;;;886.15;803.35;;;;;;;;;;4947983;29;20054;-68
2023/07/31 05:51:21;;;;;;;896.85;811.28;;;;;;;;;;4948208;29;20039;-68
2023/07/31 05:53:47;;;;;;;902.17;817.13;;;;;;;;;;4946652;29;20071;-68
2023/07/31 05:56:17;;;;;;;906.40;821.58;;;;;;;;;;4946961;29;20056;-69
2023/07/31 05:58:43;;;;;;;919.08;832.42;;;;;;;;;;4946778;29;20071;-68
2023/07/31 06:01:10;;;;;;;905.33;821.50;;;;;;;;;;4944494;29;20604;-69
2023/07/31 06:03:37;;;;;;;905.92;822.80;;;;;;;;;;4949993;29;20499;-70
2023/07/31 06:06:03;;;;;;;932.03;841.75;;;;;;;;;;4947471;28;20047;-69
2023/07/31 06:08:30;;;;;;;928.30;839.35;;;;;;;;;;4943274;29;20051;-69
2023/07/31 06:10:57;;;;;;;923.30;839.55;;;;;;;;;;4946237;28;20046;-68
2023/07/31 06:13:23;;;;;;;925.53;840.97;;;;;;;;;;4947368;28;20107;-69
2023/07/31 06:15:50;;;;;;;945.38;859.72;;;;;;;;;;4945743;28;20537;-67
2023/07/31 06:18:17;;;;;;;923.55;839.72;;;;;;;;;;4944917;29;20051;-77
2023/07/31 06:20:44;;;;;;;942.50;855.03;;;;;;;;;;4944721;29;20134;-71
2023/07/31 06:23:10;;;;;;;942.90;858.15;;;;;;;;;;4946237;28;20067;-71
2023/07/31 06:25:37;;;;;;;951.08;863.65;;;;;;;;;;4936836;29;20043;-70
2023/07/31 06:28:04;;;;;;;945.03;859.88;;;;;;;;;;4943813;29;20039;-70
2023/07/31 06:30:30;;;;;;;938.00;853.30;;;;;;;;;;4945260;28;20066;-70
2023/07/31 06:32:57;;;;;;;956.50;866.47;;;;;;;;;;4943485;28;20100;-69
2023/07/31 06:35:24;;;;;;;951.05;862.78;;;;;;;;;;4946308;29;20047;-69
2023/07/31 06:37:51;;;;;;;945.33;859.28;;;;;;;;;;4944865;29;20097;-69
2023/07/31 06:40:19;;;;;;;950.78;865.25;;;;;;;;;;4946234;29;20080;-70
2023/07/31 06:42:45;;;;;;;933.85;848.58;;;;;;;;;;4944807;29;20058;-69
2023/07/31 06:45:12;;;;;;;941.25;855.25;;;;;;;;;;4945364;29;20051;-69
2023/07/31 06:47:39;;;;;;;942.53;854.85;;;;;;;;;;4942456;29;20054;-69
2023/07/31 06:50:05;;;;;;;930.63;844.72;;;;;;;;;;4943804;29;20047;-72
2023/07/31 06:52:32;;;;;;;929.92;842.28;;;;;;;;;;4944206;29;20061;-70
2023/07/31 06:55:03;;;;;;;921.70;836.85;;;;;;;;;;4945951;29;20046;-68
2023/07/31 06:57:30;;;;;;;913.75;829.97;;;;;;;;;;4920120;29;20052;-68
2023/07/31 06:59:57;;;;;;;916.58;832.72;;;;;;;;;;4945839;28;20485;-69
2023/07/31 07:02:24;;;;;;;932.05;844.20;;;;;;;;;;4942384;29;20107;-69
2023/07/31 07:04:51;;;;;;;905.47;822.88;;;;;;;;;;4942235;29;20043;-69
2023/07/31 07:07:17;;;;;;;908.00;824.42;;;;;;;;;;4943948;29;20047;-68
2023/07/31 07:09:44;;;;;;;904.85;821.03;;;;;;;;;;4941795;29;20048;-69
2023/07/31 07:12:11;;;;;;;897.00;814.08;;;;;;;;;;4946732;29;20076;-68
2023/07/31 07:14:37;;;;;;;911.47;827.25;;;;;;;;;;4945243;29;20051;-70
2023/07/31 07:17:04;;;;;;;912.30;825.53;;;;;;;;;;4941614;29;20409;-70
2023/07/31 07:19:31;;;;;;;908.47;824.10;;;;;;;;;;4943165;29;20043;-70
2023/07/31 07:21:59;;;;;;;900.00;815.60;;;;;;;;;;4944997;29;20102;-70
2023/07/31 07:24:26;;;;;;;907.20;821.97;;;;;;;;;;4943069;29;20124;-69
2023/07/31 07:26:53;;;;;;;903.88;818.28;;;;;;;;;;4944809;29;20050;-69
2023/07/31 07:29:21;;;;;;;907.90;820.60;;;;;;;;;;4944219;29;20497;-69
2023/07/31 07:31:48;;;;;;;907.25;822.58;;;;;;;;;;4948719;29;20137;-69
2023/07/31 07:34:14;;;;;;;910.50;825.40;;;;;;;;;;4944356;29;20051;-69
2023/07/31 07:36:41;;;;;;;904.03;819.00;;;;;;;;;;4947683;28;20046;-69
2023/07/31 07:39:09;;;;;;;918.42;833.38;;;;;;;;;;4941858;29;20043;-69
2023/07/31 07:41:36;;;;;;;930.83;844.30;;;;;;;;;;4941004;29;20430;-69
2023/07/31 07:44:03;;;;;;;951.55;864.75;;;;;;;;;;4946588;29;20044;-69
2023/07/31 07:46:30;;;;;;;971.88;883.88;;;;;;;;;;4946057;29;20044;-69
2023/07/31 07:48:57;;;;;;;1016.50;924.20;;;;;;;;;;4944746;29;20485;-69
2023/07/31 07:51:23;;;;;;;1024.38;933.35;;;;;;;;;;4944846;29;20046;-69
2023/07/31 07:53:50;;;;;;;1023.42;930.88;;;;;;;;;;4934877;29;20413;-70
2023/07/31 07:56:17;;;;;;;1025.70;934.83;;;;;;;;;;4927725;29;20055;-67
2023/07/31 07:58:43;;;;;;;1016.85;926.00;;;;;;;;;;4945750;28;20078;-70
2023/07/31 08:01:10;;;;;;;1018.63;927.20;;;;;;;;;;4942534;29;20083;-67
2023/07/31 08:03:37;;;;;;;1024.45;931.22;;;;;;;;;;4944895;28;20058;-81
2023/07/31 08:06:04;;;;;;;1039.95;946.90;;;;;;;;;;4945703;29;20107;-81
2023/07/31 08:08:30;;;;;;;1042.82;944.63;;;;;;;;;;4940986;29;20039;-80
2023/07/31 08:10:57;;;;;;;1025.47;934.60;;;;;;;;;;4943740;29;20075;-81
2023/07/31 08:13:24;;;;;;;1029.28;938.78;;;;;;;;;;4942474;29;20047;-81
2023/07/31 08:15:50;;;;;;;1031.32;940.42;;;;;;;;;;4943359;29;20051;-83
2023/07/31 08:18:17;;;;;;;1033.90;940.00;;;;;;;;;;4941650;29;20051;-72
2023/07/31 08:20:44;;;;;;;1054.18;959.08;;;;;;;;;;4943371;29;20090;-76
2023/07/31 08:23:11;;;;;;;1042.28;949.35;;;;;;;;;;4942968;29;20055;-74
2023/07/31 08:25:37;;;;;;;1046.95;953.75;;;;;;;;;;4946028;29;20102;-66
2023/07/31 08:28:05;;;;;;;1047.97;954.95;;;;;;;;;;4920758;29;20051;-74
2023/07/31 08:30:33;;;;;;;1053.15;960.35;;;;;;;;;;4946833;29;20457;-75
2023/07/31 08:33:00;;;;;;;1056.57;962.72;;;;;;;;;;4948366;28;20054;-76
2023/07/31 08:35:28;;;;;;;1071.97;970.22;;;;;;;;;;4945346;29;20102;-75
2023/07/31 08:37:54;;;;;;;1062.43;968.28;;;;;;;;;;4946343;29;20050;-76
2023/07/31 08:40:21;;;;;;;1062.03;968.13;;;;;;;;;;4943377;29;20412;-76
2023/07/31 08:42:50;;;;;;;1058.32;966.30;;;;;;;;;;4947039;29;20036;-76
2023/07/31 08:45:18;;;;;;;1060.60;968.10;;;;;;;;;;4948995;29;20067;-76
2023/07/31 08:47:45;;;;;;;1059.75;965.22;;;;;;;;;;4947717;29;20409;-75
2023/07/31 08:50:14;;;;;;;1060.15;967.03;;;;;;;;;;4947738;29;20055;-76
2023/07/31 08:52:41;;;;;;;1068.10;973.15;;;;;;;;;;4948621;29;20054;-81
2023/07/31 08:55:08;;;;;;;1063.68;970.78;;;;;;;;;;4949101;29;20048;-75
2023/07/31 08:57:35;;;;;;;1075.43;981.45;;;;;;;;;;4947116;29;20047;-76
2023/07/31 09:00:03;;;;;;;1072.32;978.47;;;;;;;;;;4945768;29;20140;-71
2023/07/31 09:02:34;;;;;;;1081.28;983.97;;;;;;;;;;4951309;28;20055;-73
2023/07/31 09:05:02;;;;;;;1069.50;977.20;;;;;;;;;;4947853;29;20054;-74
2023/07/31 09:07:31;;;;;;;1093.28;995.78;;;;;;;;;;4943341;29;20058;-74
2023/07/31 09:09:57;;;;;;;1071.75;978.60;;;;;;;;;;4921861;29;20051;-73
2023/07/31 09:12:25;;;;;;;1086.43;990.22;;;;;;;;;;4951122;29;20576;-75
2023/07/31 09:14:51;;;;;;;1063.30;971.50;;;;;;;;;;4948715;29;20051;-72
2023/07/31 09:17:28;;;;;;;1066.07;972.00;;;;;;;;;;4951411;29;20051;-77
2023/07/31 09:19:55;;;;;;;1059.45;968.20;;;;;;;;;;4949533;29;20103;-77
2023/07/31 09:22:32;;;;;;;1055.95;963.97;;;;;;;;;;4949749;29;20047;-74
2023/07/31 09:25:13;;;;;;;1065.22;973.70;;;;;;;;;;4954126;29;20031;-75
2023/07/31 09:27:47;;;;;;;1055.68;964.70;;;;;;;;;;4945546;29;20043;-67
2023/07/31 09:30:14;;;;;;;1070.88;978.58;;;;;;;;;;4945875;29;20040;-69
2023/07/31 09:32:42;;;;;;;1071.30;978.58;;;;;;;;;;4948374;28;20043;-72
2023/07/31 09:35:19;;;;;;;1051.43;959.40;;;;;;;;;;4949795;29;20123;-76
2023/07/31 09:38:06;;;;;;;1062.38;971.13;;;;;;;;;;4950481;29;20039;-69
2023/07/31 09:40:33;;;;;;;1059.28;967.42;;;;;;;;;;4948474;29;20134;-71
2023/07/31 09:43:01;;;;;;;1067.35;974.17;;;;;;;;;;4946350;29;20469;-68
2023/07/31 09:45:28;;;;;;;1062.55;967.78;;;;;;;;;;4946501;29;20059;-70
2023/07/31 09:48:11;;;;;;;1058.70;965.05;;;;;;;;;;4939964;29;20145;-68
2023/07/31 09:50:41;;;;;;;1055.57;959.60;;;;;;;;;;4943920;29;20048;-71
2023/07/31 09:53:08;;;;;;;1065.03;968.10;;;;;;;;;;4945651;29;20055;-71
2023/07/31 09:55:36;;;;;;;1060.70;966.85;;;;;;;;;;4945932;29;20125;-72
2023/07/31 09:58:06;;;;;;;1077.53;980.25;;;;;;;;;;4942783;29;20090;-67
2023/07/31 10:00:34;;;;;;;1074.32;978.80;;;;;;;;;;4925245;29;20099;-67
2023/07/31 10:03:07;;;;;;;1074.93;978.30;;;;;;;;;;4943297;28;20078;-67
2023/07/31 10:05:36;;;;;;;1080.28;979.85;;;;;;;;;;4926051;29;20051;-67
2023/07/31 10:08:03;;;;;;;1071.68;977.50;;;;;;;;;;4943289;29;20063;-66
2023/07/31 10:10:31;;;;;;;1079.05;985.90;;;;;;;;;;4941862;28;20051;-69
2023/07/31 10:12:58;;;;;;;1081.18;988.00;;;;;;;;;;4943306;29;20035;-68
2023/07/31 10:15:25;;;;;;;1077.32;985.50;;;;;;;;;;4945320;29;20055;-70
2023/07/31 10:17:53;;;;;;;1083.15;989.25;;;;;;;;;;4945097;29;20082;-70
2023/07/31 10:20:21;;;;;;;1084.97;989.45;;;;;;;;;;4945166;29;20040;-68
2023/07/31 10:22:47;;;;;;;1082.75;989.28;;;;;;;;;;4947447;29;20461;-69
2023/07/31 10:25:15;;;;;;;1085.75;991.22;;;;;;;;;;4947033;29;20054;-69
2023/07/31 10:27:42;;;;;;;1074.35;981.97;;;;;;;;;;4946663;29;20039;-68
2023/07/31 10:30:13;;;;;;;1077.85;984.03;;;;;;;;;;4946080;29;20043;-69
2023/07/31 10:32:45;;;;;;;1087.60;993.33;;;;;;;;;;4949545;29;20070;-69
2023/07/31 10:35:12;;;;;;;1087.65;993.67;;;;;;;;;;4947140;29;20079;-69
2023/07/31 10:37:39;;;;;;;1094.38;997.25;;;;;;;;;;4946881;29;20051;-69
2023/07/31 10:40:09;;;;;;;1089.40;995.58;;;;;;;;;;4941593;29;20055;-69
2023/07/31 10:42:38;;;;;;;1086.47;992.85;;;;;;;;;;4933717;29;20086;-70
2023/07/31 10:45:06;;;;;;;1090.50;994.97;;;;;;;;;;4946431;28;20047;-72
2023/07/31 10:47:42;;;;;;;1105.57;999.90;;;;;;;;;;4943807;29;20123;-70
2023/07/31 10:50:12;;;;;;;1108.82;999.90;;;;;;;;;;4944448;29;20052;-71
2023/07/31 10:52:39;;;;;;;1092.60;996.92;;;;;;;;;;4944119;29;20119;-70
2023/07/31 10:55:21;;;;;;;1103.72;999.90;;;;;;;;;;4944788;29;20512;-71
2023/07/31 10:57:47;;;;;;;1092.47;995.92;;;;;;;;;;4940672;29;20397;-71
2023/07/31 11:00:18;;;;;;;1095.93;998.15;;;;;;;;;;4944680;29;20048;-72
2023/07/31 11:02:55;;;;;;;1090.45;995.22;;;;;;;;;;4943829;29;20063;-70
2023/07/31 11:05:42;;;;;;;1092.97;995.10;;;;;;;;;;4941097;29;20047;-75
2023/07/31 11:08:12;;;;;;;1077.82;984.28;;;;;;;;;;4943815;28;20107;-69
2023/07/31 11:10:39;;;;;;;1081.22;988.78;;;;;;;;;;4945832;29;20090;-70
2023/07/31 11:13:05;;;;;;;1094.75;997.78;;;;;;;;;;4947300;29;20393;-70
2023/07/31 11:15:32;;;;;;;1091.72;996.70;;;;;;;;;;4948090;29;20058;-72
2023/07/31 11:18:00;;;;;;;1084.18;991.03;;;;;;;;;;4945330;29;20055;-70
2023/07/31 11:20:29;;;;;;;1098.03;998.90;;;;;;;;;;4944496;28;20104;-69
2023/07/31 11:22:57;;;;;;;1091.32;995.28;;;;;;;;;;4947699;29;20142;-71
2023/07/31 11:25:28;;;;;;;1086.80;993.85;;;;;;;;;;4945002;29;20044;-70
2023/07/31 11:27:56;;;;;;;1086.53;992.97;;;;;;;;;;4946154;28;20062;-69
2023/07/31 11:30:23;;;;;;;1084.53;990.90;;;;;;;;;;4945291;29;20485;-69
2023/07/31 11:32:50;;;;;;;1096.05;999.20;;;;;;;;;;4944209;29;20079;-70
2023/07/31 11:35:17;;;;;;;1088.18;994.45;;;;;;;;;;4945107;29;20453;-74
2023/07/31 11:37:45;;;;;;;1095.70;998.28;;;;;;;;;;4945774;29;20548;-69
2023/07/31 11:40:12;;;;;;;1089.72;994.78;;;;;;;;;;4943098;29;20047;-69
2023/07/31 11:42:38;;;;;;;1098.80;999.22;;;;;;;;;;4946817;29;20039;-69
2023/07/31 11:45:11;;;;;;;1120.78;999.90;;;;;;;;;;4944039;28;20516;-68
2023/07/31 11:47:37;;;;;;;1106.97;999.90;;;;;;;;;;4942899;29;21148;-69
2023/07/31 11:50:05;;;;;;;1105.05;999.90;;;;;;;;;;4942825;29;20114;-69
2023/07/31 11:52:33;;;;;;;1104.07;999.90;;;;;;;;;;4940706;29;20043;-69
2023/07/31 11:55:00;;;;;;;1089.90;995.53;;;;;;;;;;4944380;29;20601;-68
2023/07/31 11:57:28;;;;;;;1106.28;999.90;;;;;;;;;;4943492;29;20046;-70
2023/07/31 11:59:55;;;;;;;1107.35;999.90;;;;;;;;;;4942914;29;20044;-69
2023/07/31 12:02:22;;;;;;;1116.95;999.90;;;;;;;;;;4943187;29;20051;-70
2023/07/31 12:04:49;;;;;;;1097.50;998.78;;;;;;;;;;4943826;29;20406;-70
2023/07/31 12:07:17;;;;;;;1116.03;999.90;;;;;;;;;;4942917;29;20482;-69
2023/07/31 12:10:10;;;;;;;1106.32;999.90;;;;;;;;;;4943353;29;20058;-68
2023/07/31 12:12:37;;;;;;;1110.93;999.90;;;;;;;;;;4940799;29;20467;-70
2023/07/31 12:15:12;;;;;;;1125.03;999.90;;;;;;;;;;4944727;28;20118;-70
2023/07/31 12:17:39;;;;;;;1103.47;999.90;;;;;;;;;;4943400;29;20401;-69
2023/07/31 12:20:07;;;;;;;1099.13;999.53;;;;;;;;;;4950077;29;20035;-68
2023/07/31 12:22:33;;;;;;;1107.45;999.90;;;;;;;;;;4946517;29;20047;-70
2023/07/31 12:25:00;;;;;;;1103.07;999.90;;;;;;;;;;4940875;29;20035;-69
2023/07/31 12:27:32;;;;;;;1100.88;997.78;;;;;;;;;;4944985;29;20043;-68
2023/07/31 12:29:59;;;;;;;1085.75;989.95;;;;;;;;;;4941261;29;20540;-66
2023/07/31 12:32:28;;;;;;;1091.03;991.85;;;;;;;;;;4941235;28;20409;-69
2023/07/31 12:34:59;;;;;;;1096.35;998.35;;;;;;;;;;4947023;29;20054;-66
2023/07/31 12:37:26;;;;;;;1088.03;990.03;;;;;;;;;;4943816;28;20118;-68
2023/07/31 12:39:52;;;;;;;1076.43;981.33;;;;;;;;;;4912388;29;20048;-65
2023/07/31 12:42:19;;;;;;;1079.78;983.15;;;;;;;;;;4915891;29;20040;-67
2023/07/31 12:44:46;;;;;;;1087.47;988.58;;;;;;;;;;4943257;28;20534;-67
2023/07/31 12:47:15;;;;;;;1069.47;972.75;;;;;;;;;;4940870;29;20063;-67
2023/07/31 12:49:41;;;;;;;1075.38;977.08;;;;;;;;;;4941099;29;20138;-67
2023/07/31 12:52:08;;;;;;;1065.57;970.88;;;;;;;;;;4940709;29;20084;-65
2023/07/31 12:54:35;;;;;;;1067.65;970.17;;;;;;;;;;4943168;29;20036;-65
2023/07/31 12:57:02;;;;;;;1069.50;972.70;;;;;;;;;;4944561;29;20094;-68
2023/07/31 12:59:28;;;;;;;1076.25;976.40;;;;;;;;;;4948548;29;20070;-66
2023/07/31 13:01:55;;;;;;;1071.78;976.10;;;;;;;;;;4943724;29;20111;-66
2023/07/31 13:04:21;;;;;;;1066.68;970.78;;;;;;;;;;4940165;29;20047;-66
2023/07/31 13:06:48;;;;;;;1063.88;969.83;;;;;;;;;;4944143;29;20071;-68
2023/07/31 13:09:17;;;;;;;1065.70;969.28;;;;;;;;;;4943472;29;20098;-67
2023/07/31 13:11:43;;;;;;;1072.13;976.15;;;;;;;;;;4942706;29;20039;-66
2023/07/31 13:14:11;;;;;;;1065.63;971.92;;;;;;;;;;4943553;29;20052;-65
2023/07/31 13:16:37;;;;;;;1060.75;964.40;;;;;;;;;;4946179;29;20040;-67
2023/07/31 13:19:04;;;;;;;1059.03;965.03;;;;;;;;;;4943684;29;20043;-69
2023/07/31 13:21:31;;;;;;;1061.38;966.65;;;;;;;;;;4943206;29;20113;-65
2023/07/31 13:23:59;;;;;;;1062.38;968.17;;;;;;;;;;4942274;29;20094;-67
2023/07/31 13:26:25;;;;;;;1067.68;969.95;;;;;;;;;;4943912;29;20051;-69
2023/07/31 13:28:52;;;;;;;1068.32;974.13;;;;;;;;;;4945510;28;20071;-68
2023/07/31 13:31:19;;;;;;;1062.28;967.85;;;;;;;;;;4944445;29;20055;-66
2023/07/31 13:33:46;;;;;;;1091.50;996.05;;;;;;;;;;4944472;29;20098;-67
2023/07/31 13:36:13;;;;;;;1100.95;999.65;;;;;;;;;;4942281;29;20059;-70
2023/07/31 13:38:40;;;;;;;1093.53;996.83;;;;;;;;;;4942621;29;20055;-69
2023/07/31 13:41:07;;;;;;;1086.78;992.55;;;;;;;;;;4941577;29;20051;-69
2023/07/31 13:43:34;;;;;;;1082.13;988.53;;;;;;;;;;4941326;29;20043;-68
2023/07/31 13:46:06;;;;;;;1090.72;994.13;;;;;;;;;;4940967;29;20123;-73
2023/07/31 13:48:34;;;;;;;1101.35;999.03;;;;;;;;;;4944423;29;20046;-67
2023/07/31 13:51:01;;;;;;;1092.72;996.00;;;;;;;;;;4947229;29;20043;-73
2023/07/31 13:53:27;;;;;;;1088.47;991.67;;;;;;;;;;4945621;29;20071;-76